createdAt,value
2022-11-09T00:01:03.231Z,5.70
2022-11-09T00:03:31.362Z,7.00
2022-11-09T00:06:00.908Z,5.57
2022-11-09T00:08:30.848Z,4.70
2022-11-09T00:11:04.751Z,10.53
2022-11-09T00:13:33.159Z,5.30
2022-11-09T00:16:02.201Z,10.53
2022-11-09T00:18:30.727Z,5.10
2022-11-09T00:20:59.130Z,5.90
2022-11-09T00:23:27.217Z,6.43
2022-11-09T00:26:00.920Z,6.80
2022-11-09T00:28:29.040Z,6.07
2022-11-09T00:31:00.513Z,5.63
2022-11-09T00:33:28.758Z,5.17
2022-11-09T00:35:57.242Z,6.80
2022-11-09T00:38:25.421Z,7.87
2022-11-09T00:40:53.547Z,6.90
2022-11-09T00:43:24.017Z,6.87
2022-11-09T00:45:52.040Z,5.60
2022-11-09T00:48:20.142Z,6.33
2022-11-09T00:50:51.242Z,4.93
2022-11-09T00:53:20.309Z,6.23
2022-11-09T00:55:55.753Z,11.07
2022-11-09T00:58:25.949Z,6.67
2022-11-09T01:00:54.622Z,7.17
2022-11-09T01:03:23.338Z,4.50
2022-11-09T01:05:52.019Z,4.43
2022-11-09T01:08:20.807Z,5.33
2022-11-09T01:10:49.926Z,6.43
2022-11-09T01:13:19.790Z,4.23
2022-11-09T01:15:50.887Z,3.70
2022-11-09T01:18:20.494Z,4.17
2022-11-09T01:20:50.472Z,4.70
2022-11-09T01:23:20.014Z,5.33
2022-11-09T01:25:48.289Z,4.67
2022-11-09T01:28:16.409Z,4.83
2022-11-09T01:30:44.697Z,7.03
2022-11-09T01:33:14.134Z,5.77
2022-11-09T01:35:42.513Z,4.87
2022-11-09T01:38:10.789Z,5.90
2022-11-09T01:40:40.677Z,6.30
2022-11-09T01:43:16.677Z,4.97
2022-11-09T01:45:46.317Z,6.97
2022-11-09T01:48:19.735Z,5.93
2022-11-09T01:50:52.833Z,7.20
2022-11-09T01:53:25.107Z,8.93
2022-11-09T01:55:56.340Z,9.03
2022-11-09T01:58:29.577Z,11.30
2022-11-09T02:00:59.313Z,8.20
2022-11-09T02:03:32.953Z,8.90
2022-11-09T02:06:02.949Z,10.37
2022-11-09T02:08:31.095Z,9.47
2022-11-09T02:11:06.284Z,6.60
2022-11-09T02:13:35.938Z,8.47
2022-11-09T02:16:04.526Z,8.33
2022-11-09T02:18:35.034Z,7.40
2022-11-09T02:21:04.472Z,9.63
2022-11-09T02:23:32.643Z,9.33
2022-11-09T02:26:05.007Z,9.37
2022-11-09T02:28:33.695Z,6.80
2022-11-09T02:31:02.839Z,7.50
2022-11-09T02:33:30.913Z,7.63
2022-11-09T02:35:58.987Z,9.40
2022-11-09T02:38:28.409Z,7.93
2022-11-09T02:40:56.508Z,7.70
2022-11-09T02:43:24.690Z,6.97
2022-11-09T02:45:52.782Z,8.30
2022-11-09T02:48:20.883Z,10.40
2022-11-09T02:50:48.958Z,23.03
2022-11-09T02:53:17.254Z,21.20
2022-11-09T02:55:46.892Z,22.97
2022-11-09T02:58:15.320Z,11.70
2022-11-09T03:00:43.527Z,14.73
2022-11-09T03:03:11.601Z,13.77
2022-11-09T03:05:39.678Z,9.30
2022-11-09T03:08:07.734Z,9.83
2022-11-09T03:10:35.822Z,10.50
2022-11-09T03:13:05.265Z,10.97
2022-11-09T03:15:33.602Z,10.20
2022-11-09T03:18:01.631Z,13.77
2022-11-09T03:20:29.709Z,9.33
2022-11-09T03:22:59.817Z,8.70
2022-11-09T03:25:28.331Z,48.13
2022-11-09T03:27:59.135Z,14.13
2022-11-09T03:30:29.204Z,14.63
2022-11-09T03:33:00.816Z,9.00
2022-11-09T03:35:29.433Z,8.33
2022-11-09T03:37:57.608Z,9.70
2022-11-09T03:40:25.768Z,29.33
2022-11-09T03:42:53.907Z,9.27
2022-11-09T03:45:22.084Z,8.70
2022-11-09T03:47:51.608Z,9.63
2022-11-09T03:50:19.873Z,7.80
2022-11-09T03:52:48.509Z,8.47
2022-11-09T03:55:16.712Z,9.73
2022-11-09T03:57:46.188Z,11.80
2022-11-09T04:00:17.179Z,10.20
2022-11-09T04:02:45.664Z,8.50
2022-11-09T04:05:15.637Z,19.70
2022-11-09T04:07:49.186Z,11.20
2022-11-09T04:10:17.750Z,24.57
2022-11-09T04:12:45.988Z,43.37
2022-11-09T04:15:14.787Z,15.97
2022-11-09T04:17:44.696Z,13.20
2022-11-09T04:20:14.900Z,24.23
2022-11-09T04:22:42.990Z,12.20
2022-11-09T04:25:11.120Z,28.23
2022-11-09T04:27:39.174Z,20.17
2022-11-09T04:30:08.412Z,15.73
2022-11-09T04:32:36.485Z,24.20
2022-11-09T04:35:04.970Z,43.43
2022-11-09T04:37:34.570Z,76.47
2022-11-09T04:40:02.668Z,104.97
2022-11-09T04:42:30.746Z,31.97
2022-11-09T04:44:58.905Z,39.47
2022-11-09T04:47:27.061Z,37.27
2022-11-09T04:49:55.136Z,73.37
2022-11-09T04:52:23.202Z,40.57
2022-11-09T04:54:52.663Z,283.37
2022-11-09T04:57:20.745Z,244.63
2022-11-09T04:59:48.864Z,332.80
2022-11-09T05:02:16.967Z,204.50
2022-11-09T05:04:45.064Z,379.93
2022-11-09T05:07:13.233Z,117.23
2022-11-09T05:09:41.360Z,252.47
2022-11-09T05:12:12.427Z,91.80
2022-11-09T05:14:40.532Z,127.87
2022-11-09T05:17:08.843Z,88.70
2022-11-09T05:19:37.095Z,135.10
2022-11-09T05:22:19.072Z,21.60
2022-11-09T05:24:47.220Z,67.87
2022-11-09T05:27:16.687Z,72.47
2022-11-09T05:29:44.855Z,9.23
2022-11-09T05:32:13.015Z,21.90
2022-11-09T05:34:41.125Z,47.60
2022-11-09T05:37:09.240Z,79.20
2022-11-09T05:39:37.352Z,117.53
2022-11-09T05:42:05.456Z,28.47
2022-11-09T05:44:34.932Z,53.23
2022-11-09T05:47:03.022Z,299.27
2022-11-09T05:49:31.151Z,169.33
2022-11-09T05:51:59.235Z,44.70
2022-11-09T05:54:27.432Z,128.80
2022-11-09T05:56:55.542Z,108.63
2022-11-09T05:59:23.680Z,119.27
2022-11-09T06:01:53.190Z,79.23
2022-11-09T06:04:21.515Z,174.47
2022-11-09T06:06:49.603Z,238.37
2022-11-09T06:09:17.801Z,82.87
2022-11-09T06:11:45.937Z,37.17
2022-11-09T06:14:14.120Z,17.23
2022-11-09T06:16:42.230Z,18.27
2022-11-09T06:19:11.843Z,36.90
2022-11-09T06:21:39.939Z,20.93
2022-11-09T06:24:08.649Z,133.47
2022-11-09T06:26:36.821Z,38.20
2022-11-09T06:29:05.129Z,19.63
2022-11-09T06:31:33.408Z,22.93
2022-11-09T06:34:01.467Z,20.43
2022-11-09T06:36:30.961Z,17.20
2022-11-09T06:38:59.016Z,15.83
2022-11-09T06:41:27.250Z,15.00
2022-11-09T06:43:55.373Z,17.13
2022-11-09T06:46:23.691Z,14.77
2022-11-09T06:48:54.565Z,14.50
2022-11-09T06:51:22.864Z,12.60
2022-11-09T06:53:52.459Z,14.33
2022-11-09T06:56:20.585Z,17.87
2022-11-09T06:58:48.712Z,15.13
2022-11-09T07:01:19.549Z,15.43
2022-11-09T07:03:47.705Z,14.33
2022-11-09T07:06:15.839Z,16.07
2022-11-09T07:08:43.907Z,15.20
2022-11-09T07:11:16.274Z,12.30
2022-11-09T07:13:44.378Z,17.53
2022-11-09T07:16:12.934Z,12.63
2022-11-09T07:18:41.107Z,13.33
2022-11-09T07:21:14.020Z,18.93
2022-11-09T07:23:43.256Z,23.17
2022-11-09T07:26:12.894Z,14.87
2022-11-09T07:28:41.258Z,14.80
2022-11-09T07:31:09.474Z,20.37
2022-11-09T07:33:37.944Z,25.47
2022-11-09T07:36:07.152Z,11.77
2022-11-09T07:38:35.314Z,19.97
2022-11-09T07:41:03.856Z,44.43
2022-11-09T07:43:33.464Z,56.63
2022-11-09T07:46:05.034Z,18.40
2022-11-09T07:48:33.493Z,14.80
2022-11-09T07:51:02.803Z,128.77
2022-11-09T07:53:31.143Z,66.03
2022-11-09T07:56:00.311Z,37.30
2022-11-09T07:58:28.953Z,12.17
2022-11-09T08:00:59.124Z,17.83
2022-11-09T08:03:27.651Z,14.20
2022-11-09T08:05:58.272Z,62.60
2022-11-09T08:08:26.342Z,25.97
2022-11-09T08:10:54.526Z,42.60
2022-11-09T08:13:22.969Z,57.10
2022-11-09T08:15:51.375Z,29.67
2022-11-09T08:18:22.765Z,171.03
2022-11-09T08:20:51.393Z,90.77
2022-11-09T08:23:21.866Z,17.40
2022-11-09T08:25:50.633Z,12.60
2022-11-09T08:28:19.158Z,10.00
2022-11-09T08:30:55.493Z,11.13
2022-11-09T08:33:25.129Z,9.40
2022-11-09T08:35:53.594Z,11.67
2022-11-09T08:38:22.260Z,16.73
2022-11-09T08:40:50.604Z,9.97
2022-11-09T08:43:18.730Z,9.53
2022-11-09T08:45:46.852Z,9.33
2022-11-09T08:48:15.138Z,14.47
2022-11-09T08:50:44.611Z,12.77
2022-11-09T08:53:12.738Z,11.53
2022-11-09T08:55:40.825Z,11.07
2022-11-09T08:58:08.907Z,9.87
2022-11-09T09:00:37.632Z,11.33
2022-11-09T09:03:06.523Z,9.10
2022-11-09T09:05:35.352Z,11.40
2022-11-09T09:08:06.219Z,12.43
2022-11-09T09:10:35.542Z,11.57
2022-11-09T09:13:03.928Z,9.07
2022-11-09T09:15:32.096Z,8.07
2022-11-09T09:18:01.699Z,6.77
2022-11-09T09:20:30.396Z,7.73
2022-11-09T09:22:59.757Z,8.17
2022-11-09T09:25:29.429Z,7.40
2022-11-09T09:27:57.560Z,6.67
2022-11-09T09:30:25.677Z,6.27
2022-11-09T09:32:53.824Z,7.33
2022-11-09T09:35:21.937Z,9.80
2022-11-09T09:37:50.018Z,7.07
2022-11-09T09:40:26.571Z,6.97
2022-11-09T09:42:56.843Z,7.53
2022-11-09T09:45:28.092Z,9.37
2022-11-09T09:48:01.859Z,9.00
2022-11-09T09:50:37.702Z,6.37
2022-11-09T09:53:25.442Z,7.03
2022-11-09T09:55:57.137Z,4.63
2022-11-09T09:58:29.440Z,6.00
2022-11-09T10:01:01.304Z,3.73
2022-11-09T10:03:29.511Z,6.37
2022-11-09T10:06:20.174Z,5.07
2022-11-09T10:08:54.493Z,5.03
2022-11-09T10:11:31.018Z,3.17
2022-11-09T10:14:26.375Z,3.57
2022-11-09T10:17:04.269Z,2.70
2022-11-09T10:19:47.570Z,4.60
2022-11-09T10:22:23.704Z,5.47
2022-11-09T10:25:20.683Z,3.30
2022-11-09T10:27:51.420Z,3.23
2022-11-09T10:30:23.349Z,7.50
2022-11-09T10:32:55.543Z,2.53
2022-11-09T10:35:29.863Z,7.90
2022-11-09T10:38:00.497Z,6.13
2022-11-09T10:40:32.712Z,5.07
2022-11-09T10:43:03.719Z,7.07
2022-11-09T10:45:34.805Z,4.10
2022-11-09T10:48:03.671Z,5.30
2022-11-09T10:50:35.181Z,4.50
2022-11-09T10:53:11.241Z,8.50
2022-11-09T10:55:39.797Z,5.67
2022-11-09T10:58:22.027Z,6.73
2022-11-09T11:01:00.282Z,3.80
2022-11-09T11:03:29.509Z,5.57
2022-11-09T11:06:02.001Z,5.33
2022-11-09T11:08:37.106Z,4.73
2022-11-09T11:11:32.663Z,4.60
2022-11-09T11:14:19.989Z,7.33
2022-11-09T11:16:53.746Z,5.43
2022-11-09T11:19:32.893Z,2.77
2022-11-09T11:22:23.218Z,5.07
2022-11-09T11:24:59.169Z,3.37
2022-11-09T11:27:33.071Z,4.47
2022-11-09T11:30:08.425Z,3.50
2022-11-09T11:32:37.930Z,5.17
2022-11-09T11:35:13.043Z,3.37
2022-11-09T11:37:51.783Z,2.47
2022-11-09T11:40:26.170Z,4.57
2022-11-09T11:43:08.039Z,4.47
2022-11-09T11:45:42.415Z,5.17
2022-11-09T11:48:33.157Z,7.23
2022-11-09T11:51:09.981Z,2.67
2022-11-09T11:53:55.626Z,3.80
2022-11-09T11:56:28.360Z,4.23
2022-11-09T11:59:27.984Z,3.57
2022-11-09T12:02:09.709Z,3.33
2022-11-09T12:05:04.924Z,4.67
2022-11-09T12:07:42.305Z,5.33
2022-11-09T12:10:28.584Z,6.03
2022-11-09T12:13:04.569Z,5.27
2022-11-09T12:15:41.937Z,4.60
2022-11-09T12:18:22.591Z,6.10
2022-11-09T12:20:59.308Z,3.57
2022-11-09T12:23:40.176Z,4.93
2022-11-09T12:26:23.887Z,2.53
2022-11-09T12:29:05.424Z,3.63
2022-11-09T12:31:44.259Z,5.27
2022-11-09T12:34:17.472Z,4.40
2022-11-09T12:36:52.252Z,1.80
2022-11-09T12:39:26.192Z,3.03
2022-11-09T12:42:00.768Z,4.43
2022-11-09T12:44:33.240Z,7.17
2022-11-09T12:47:04.813Z,5.47
2022-11-09T12:49:37.191Z,3.80
2022-11-09T12:52:08.952Z,2.43
2022-11-09T12:54:38.168Z,2.90
2022-11-09T12:57:09.827Z,3.53
2022-11-09T12:59:47.950Z,5.67
2022-11-09T13:02:24.954Z,6.30
2022-11-09T13:04:57.940Z,4.43
2022-11-09T13:07:44.505Z,5.00
2022-11-09T13:10:30.572Z,4.20
2022-11-09T13:13:24.038Z,4.53
2022-11-09T13:16:10.241Z,3.23
2022-11-09T13:18:53.511Z,3.87
2022-11-09T13:21:51.808Z,4.70
2022-11-09T13:24:56.477Z,4.53
2022-11-09T13:27:39.227Z,5.07
2022-11-09T13:30:45.749Z,3.67
2022-11-09T13:33:25.138Z,3.77
2022-11-09T13:36:23.724Z,2.73
2022-11-09T13:39:29.203Z,4.10
2022-11-09T13:41:57.356Z,3.83
2022-11-09T13:44:32.782Z,7.13
2022-11-09T13:47:04.197Z,3.63
2022-11-09T13:49:48.884Z,4.33
2022-11-09T13:52:57.215Z,4.37
2022-11-09T13:55:36.516Z,4.40
2022-11-09T13:58:14.968Z,5.40
2022-11-09T14:00:48.444Z,18.47
2022-11-09T14:03:22.463Z,11.17
2022-11-09T14:05:53.519Z,14.43
2022-11-09T14:08:24.751Z,20.57
2022-11-09T14:11:19.657Z,7.67
2022-11-09T14:14:03.277Z,7.70
2022-11-09T14:16:42.885Z,6.13
2022-11-09T14:19:22.087Z,5.70
2022-11-09T14:21:52.135Z,6.20
2022-11-09T14:24:22.218Z,3.80
2022-11-09T14:27:14.838Z,4.03
2022-11-09T14:29:54.773Z,5.20
2022-11-09T14:32:35.769Z,8.53
2022-11-09T14:35:21.172Z,5.80
2022-11-09T14:37:49.820Z,3.73
2022-11-09T14:40:20.299Z,1.90
2022-11-09T14:42:51.915Z,4.90
2022-11-09T14:45:20.620Z,33.53
2022-11-09T14:47:52.903Z,4.53
2022-11-09T14:50:24.254Z,3.30
2022-11-09T14:52:54.101Z,3.90
2022-11-09T14:55:24.323Z,6.47
2022-11-09T14:57:56.146Z,3.77
2022-11-09T15:00:31.227Z,5.10
2022-11-09T15:03:02.086Z,10.03
2022-11-09T15:05:39.294Z,5.67
2022-11-09T15:08:16.008Z,4.97
2022-11-09T15:10:50.344Z,4.60
2022-11-09T15:13:19.266Z,4.50
2022-11-09T15:15:53.195Z,4.67
2022-11-09T15:18:33.601Z,5.10
2022-11-09T15:21:13.146Z,4.83
2022-11-09T15:23:43.103Z,4.23
2022-11-09T15:26:35.128Z,6.27
2022-11-09T15:29:23.320Z,5.73
2022-11-09T15:32:00.921Z,6.97
2022-11-09T15:34:34.428Z,4.13
2022-11-09T15:37:02.550Z,5.60
2022-11-09T15:39:30.700Z,5.20
2022-11-09T15:41:58.815Z,4.87
2022-11-09T15:44:26.937Z,6.33
2022-11-09T15:46:55.164Z,3.80
2022-11-09T15:49:26.731Z,4.07
2022-11-09T15:51:55.521Z,5.10
2022-11-09T15:54:25.038Z,9.90
2022-11-09T15:56:53.324Z,5.93
2022-11-09T15:59:23.640Z,7.33
2022-11-09T16:01:51.828Z,8.47
2022-11-09T16:04:20.017Z,3.63
2022-11-09T16:06:49.533Z,5.10
2022-11-09T16:09:17.761Z,5.33
2022-11-09T16:11:45.832Z,8.63
2022-11-09T16:14:14.909Z,9.67
2022-11-09T16:16:42.966Z,8.60
2022-11-09T16:19:14.225Z,6.13
2022-11-09T16:21:42.790Z,4.30
2022-11-09T16:24:12.271Z,2.93
2022-11-09T16:26:40.362Z,10.77
2022-11-09T16:29:08.465Z,7.33
2022-11-09T16:31:52.859Z,4.40
2022-11-09T16:34:21.541Z,6.43
2022-11-09T16:36:56.460Z,4.90
2022-11-09T16:39:27.065Z,6.00
2022-11-09T16:41:56.617Z,7.67
2022-11-09T16:44:25.736Z,30.43
2022-11-09T16:46:53.816Z,5.93
2022-11-09T16:49:21.927Z,9.50
2022-11-09T16:51:50.040Z,5.33
2022-11-09T16:54:18.143Z,7.30
2022-11-09T16:56:48.097Z,5.57
2022-11-09T16:59:16.442Z,6.57
2022-11-09T17:01:44.658Z,5.03
2022-11-09T17:04:12.821Z,7.57
2022-11-09T17:06:41.014Z,3.97
2022-11-09T17:09:09.120Z,7.57
2022-11-09T17:11:37.897Z,4.83
2022-11-09T17:14:07.757Z,4.13
2022-11-09T17:16:36.075Z,7.57
2022-11-09T17:19:06.233Z,5.47
2022-11-09T17:21:34.369Z,11.67
2022-11-09T17:24:04.400Z,13.60
2022-11-09T17:26:33.624Z,8.40
2022-11-09T17:29:01.810Z,9.07
2022-11-09T17:31:31.343Z,3.83
2022-11-09T17:34:01.290Z,10.53
2022-11-09T17:36:57.416Z,6.07
2022-11-09T17:39:17.869Z,7.27
2022-11-09T17:41:45.974Z,9.60
2022-11-09T17:44:14.048Z,7.47
2022-11-09T17:46:43.504Z,9.20
2022-11-09T17:49:12.152Z,6.73
2022-11-09T17:51:40.280Z,5.67
2022-11-09T17:54:08.411Z,7.03
2022-11-09T17:56:38.601Z,5.33
2022-11-09T17:59:07.144Z,9.83
2022-11-09T18:01:41.248Z,5.13
2022-11-09T18:04:12.364Z,5.67
2022-11-09T18:06:40.713Z,10.17
2022-11-09T18:11:57.781Z,6.17
2022-11-09T18:14:25.860Z,10.20
2022-11-09T18:16:54.029Z,4.40
2022-11-09T18:19:23.478Z,17.13
2022-11-09T18:21:51.830Z,11.07
2022-11-09T18:24:20.121Z,7.60
2022-11-09T18:26:48.329Z,6.57
2022-11-09T18:29:16.524Z,7.93
2022-11-09T18:31:44.799Z,6.50
2022-11-09T18:34:13.098Z,7.07
2022-11-09T18:36:42.604Z,8.80
2022-11-09T18:39:10.693Z,36.97
2022-11-09T18:41:38.867Z,11.07
2022-11-09T18:44:06.995Z,10.33
2022-11-09T18:46:35.447Z,7.40
2022-11-09T18:49:03.717Z,6.10
2022-11-09T18:51:31.840Z,11.80
2022-11-09T18:54:01.273Z,4.23
2022-11-09T18:56:29.457Z,8.73
2022-11-09T18:58:58.013Z,11.10
2022-11-09T19:01:27.283Z,9.40
2022-11-09T19:03:59.285Z,10.17
2022-11-09T19:06:28.246Z,6.23
2022-11-09T19:09:13.928Z,10.67
2022-11-09T19:11:43.707Z,6.30
2022-11-09T19:14:12.130Z,9.87
2022-11-09T19:16:40.255Z,9.50
2022-11-09T19:19:08.414Z,8.70
2022-11-09T19:21:40.091Z,9.93
2022-11-09T19:24:09.369Z,6.83
2022-11-09T19:26:37.459Z,5.80
2022-11-09T19:29:07.840Z,7.17
2022-11-09T19:31:36.437Z,8.07
2022-11-09T19:34:04.541Z,5.80
2022-11-09T19:36:33.671Z,7.93
2022-11-09T19:39:02.955Z,5.50
2022-11-09T19:41:31.176Z,7.67
2022-11-09T19:44:00.139Z,4.77
2022-11-09T19:46:31.550Z,4.53
2022-11-09T19:48:59.767Z,5.33
2022-11-09T19:51:29.402Z,5.47
2022-11-09T19:53:59.026Z,8.07
2022-11-09T19:56:29.092Z,5.97
2022-11-09T19:58:59.001Z,4.73
2022-11-09T20:01:27.474Z,4.43
2022-11-09T20:03:58.523Z,8.73
2022-11-09T20:06:27.971Z,6.23
2022-11-09T20:08:56.223Z,4.37
2022-11-09T20:11:44.167Z,6.23
2022-11-09T20:14:12.459Z,4.07
2022-11-09T20:16:41.569Z,11.10
2022-11-09T20:19:14.220Z,6.57
2022-11-09T20:21:42.876Z,4.73
2022-11-09T20:24:12.494Z,5.03
2022-11-09T20:26:43.472Z,5.17
2022-11-09T20:29:11.596Z,7.97
2022-11-09T20:31:40.069Z,7.90
2022-11-09T20:34:08.310Z,12.33
2022-11-09T20:36:38.030Z,9.50
2022-11-09T20:39:06.506Z,8.77
2022-11-09T20:41:35.810Z,6.60
2022-11-09T20:44:04.462Z,8.47
2022-11-09T20:46:36.180Z,6.10
2022-11-09T20:49:05.279Z,5.60
2022-11-09T20:51:33.772Z,6.23
2022-11-09T20:54:07.437Z,10.10
2022-11-09T20:56:37.358Z,6.13
2022-11-09T20:59:05.926Z,7.00
2022-11-09T21:01:34.176Z,6.30
2022-11-09T21:04:02.996Z,4.87
2022-11-09T21:06:31.845Z,9.43
2022-11-09T21:09:01.707Z,7.17
2022-11-09T21:11:57.676Z,12.27
2022-11-09T21:14:26.318Z,18.50
2022-11-09T21:16:54.782Z,9.37
2022-11-09T21:19:23.549Z,14.47
2022-11-09T21:21:52.390Z,16.20
2022-11-09T21:24:38.323Z,17.23
2022-11-09T21:27:28.272Z,7.23
2022-11-09T21:29:56.792Z,20.47
2022-11-09T21:32:25.394Z,11.90
2022-11-09T21:34:54.008Z,11.80
2022-11-09T21:37:22.594Z,9.00
2022-11-09T21:39:50.798Z,7.50
2022-11-09T21:42:20.513Z,8.80
2022-11-09T21:44:49.044Z,45.90
2022-11-09T21:47:17.691Z,118.07
2022-11-09T21:49:46.211Z,38.27
2022-11-09T21:52:14.434Z,33.90
2022-11-09T21:54:43.820Z,77.67
2022-11-09T21:57:13.258Z,22.83
2022-11-09T21:59:44.324Z,9.80
2022-11-09T22:02:14.040Z,39.50
2022-11-09T22:04:43.490Z,14.73
2022-11-09T22:07:12.096Z,8.10
2022-11-09T22:10:08.289Z,10.47
2022-11-09T22:12:46.120Z,6.20
2022-11-09T22:15:33.533Z,7.57
2022-11-09T22:18:02.179Z,7.53
2022-11-09T22:20:47.626Z,6.80
2022-11-09T22:23:15.912Z,7.90
2022-11-09T22:25:47.889Z,7.40
2022-11-09T22:28:16.536Z,10.27
2022-11-09T22:30:46.283Z,6.63
2022-11-09T22:33:15.682Z,7.33
2022-11-09T22:35:44.066Z,31.63
2022-11-09T22:38:12.371Z,9.33
2022-11-09T22:40:47.944Z,9.73
2022-11-09T22:43:17.046Z,6.60
2022-11-09T22:45:46.972Z,10.27
2022-11-09T22:48:15.879Z,13.37
2022-11-09T22:50:44.183Z,8.60
2022-11-09T22:53:12.483Z,10.57
2022-11-09T22:55:41.043Z,4.07
2022-11-09T22:58:09.619Z,7.17
2022-11-09T23:00:37.951Z,13.80
2022-11-09T23:03:07.465Z,11.93
2022-11-09T23:05:36.047Z,5.27
2022-11-09T23:08:04.654Z,10.43
2022-11-09T23:10:32.999Z,11.73
2022-11-09T23:13:01.696Z,5.67
2022-11-09T23:15:30.671Z,7.00
2022-11-09T23:18:17.217Z,16.00
2022-11-09T23:20:47.582Z,6.67
2022-11-09T23:23:16.025Z,9.73
2022-11-09T23:25:56.937Z,10.77
2022-11-09T23:28:25.898Z,9.60
2022-11-09T23:30:54.140Z,14.97
2022-11-09T23:33:22.610Z,7.33
2022-11-09T23:35:52.426Z,16.50
2022-11-09T23:38:23.779Z,12.73
2022-11-09T23:40:52.403Z,14.27
2022-11-09T23:43:21.702Z,9.30
2022-11-09T23:45:50.677Z,16.23
2022-11-09T23:48:20.177Z,6.43
2022-11-09T23:50:49.446Z,13.47
2022-11-09T23:53:21.221Z,6.63
2022-11-09T23:55:50.344Z,5.47
2022-11-09T23:58:18.537Z,10.37
